sensor_id;sensor_type;location;lat;lon;timestamp;P1;durP1;ratioP1;P2;durP2;ratioP2
72117;SDS011;59992;47.490;8.736;2023-12-20T00:02:32;7.20;;;3.60;;
72117;SDS011;59992;47.490;8.736;2023-12-20T00:05:20;6.10;;;3.20;;
72117;SDS011;59992;47.490;8.736;2023-12-20T00:08:08;7.00;;;3.50;;
72117;SDS011;59992;47.490;8.736;2023-12-20T00:10:56;6.80;;;3.20;;
72117;SDS011;59992;47.490;8.736;2023-12-20T00:13:45;8.30;;;4.20;;
72117;SDS011;59992;47.490;8.736;2023-12-20T00:16:33;6.20;;;3.50;;
72117;SDS011;59992;47.490;8.736;2023-12-20T00:19:21;7.20;;;3.70;;
72117;SDS011;59992;47.490;8.736;2023-12-20T00:22:09;7.90;;;3.30;;
72117;SDS011;59992;47.490;8.736;2023-12-20T00:24:58;9.40;;;5.20;;
72117;SDS011;59992;47.490;8.736;2023-12-20T00:27:46;7.60;;;4.30;;
72117;SDS011;59992;47.490;8.736;2023-12-20T00:30:35;8.20;;;4.70;;
72117;SDS011;59992;47.490;8.736;2023-12-20T00:33:23;8.60;;;4.40;;
72117;SDS011;59992;47.490;8.736;2023-12-20T00:36:11;9.80;;;4.80;;
72117;SDS011;59992;47.490;8.736;2023-12-20T00:38:59;8.70;;;4.60;;
72117;SDS011;59992;47.490;8.736;2023-12-20T00:41:47;8.90;;;4.90;;
72117;SDS011;59992;47.490;8.736;2023-12-20T00:44:35;9.00;;;4.60;;
72117;SDS011;59992;47.490;8.736;2023-12-20T00:47:24;9.80;;;4.90;;
72117;SDS011;59992;47.490;8.736;2023-12-20T00:50:13;9.00;;;4.60;;
72117;SDS011;59992;47.490;8.736;2023-12-20T00:53:01;8.70;;;4.50;;
72117;SDS011;59992;47.490;8.736;2023-12-20T00:55:49;9.40;;;4.80;;
72117;SDS011;59992;47.490;8.736;2023-12-20T00:58:38;7.90;;;4.30;;
72117;SDS011;59992;47.490;8.736;2023-12-20T01:01:26;8.20;;;4.50;;
72117;SDS011;59992;47.490;8.736;2023-12-20T01:04:14;6.20;;;3.40;;
72117;SDS011;59992;47.490;8.736;2023-12-20T01:07:03;8.90;;;4.00;;
72117;SDS011;59992;47.490;8.736;2023-12-20T01:09:51;6.50;;;3.60;;
72117;SDS011;59992;47.490;8.736;2023-12-20T01:12:40;6.30;;;3.30;;
72117;SDS011;59992;47.490;8.736;2023-12-20T01:15:28;7.50;;;3.50;;
72117;SDS011;59992;47.490;8.736;2023-12-20T01:18:17;6.40;;;3.80;;
72117;SDS011;59992;47.490;8.736;2023-12-20T01:21:05;7.90;;;4.10;;
72117;SDS011;59992;47.490;8.736;2023-12-20T01:23:53;8.60;;;4.40;;
72117;SDS011;59992;47.490;8.736;2023-12-20T01:26:42;6.60;;;3.70;;
72117;SDS011;59992;47.490;8.736;2023-12-20T01:29:30;7.30;;;3.90;;
72117;SDS011;59992;47.490;8.736;2023-12-20T01:32:18;6.30;;;3.70;;
72117;SDS011;59992;47.490;8.736;2023-12-20T01:35:06;6.40;;;3.40;;
72117;SDS011;59992;47.490;8.736;2023-12-20T01:37:55;7.50;;;3.80;;
72117;SDS011;59992;47.490;8.736;2023-12-20T01:40:43;6.80;;;3.60;;
72117;SDS011;59992;47.490;8.736;2023-12-20T01:43:31;8.00;;;4.20;;
72117;SDS011;59992;47.490;8.736;2023-12-20T01:46:20;8.20;;;3.80;;
72117;SDS011;59992;47.490;8.736;2023-12-20T01:49:09;7.30;;;4.00;;
72117;SDS011;59992;47.490;8.736;2023-12-20T01:51:57;6.60;;;3.60;;
72117;SDS011;59992;47.490;8.736;2023-12-20T01:54:46;8.50;;;4.00;;
72117;SDS011;59992;47.490;8.736;2023-12-20T01:57:35;9.20;;;4.10;;
72117;SDS011;59992;47.490;8.736;2023-12-20T02:00:24;6.00;;;4.00;;
72117;SDS011;59992;47.490;8.736;2023-12-20T02:03:13;7.20;;;3.80;;
72117;SDS011;59992;47.490;8.736;2023-12-20T02:06:03;9.00;;;4.40;;
72117;SDS011;59992;47.490;8.736;2023-12-20T02:08:52;9.50;;;4.90;;
72117;SDS011;59992;47.490;8.736;2023-12-20T02:11:40;8.80;;;4.50;;
72117;SDS011;59992;47.490;8.736;2023-12-20T02:14:28;9.00;;;4.80;;
72117;SDS011;59992;47.490;8.736;2023-12-20T02:17:17;9.60;;;4.30;;
72117;SDS011;59992;47.490;8.736;2023-12-20T02:20:06;9.80;;;4.90;;
72117;SDS011;59992;47.490;8.736;2023-12-20T02:22:55;8.70;;;4.90;;
72117;SDS011;59992;47.490;8.736;2023-12-20T02:25:43;8.30;;;4.90;;
72117;SDS011;59992;47.490;8.736;2023-12-20T02:28:31;9.20;;;5.40;;
72117;SDS011;59992;47.490;8.736;2023-12-20T02:31:21;10.20;;;5.00;;
72117;SDS011;59992;47.490;8.736;2023-12-20T02:34:10;9.20;;;5.40;;
72117;SDS011;59992;47.490;8.736;2023-12-20T02:36:58;10.50;;;5.10;;
72117;SDS011;59992;47.490;8.736;2023-12-20T02:39:46;8.00;;;4.80;;
72117;SDS011;59992;47.490;8.736;2023-12-20T02:42:35;9.70;;;4.80;;
72117;SDS011;59992;47.490;8.736;2023-12-20T02:45:23;7.10;;;4.20;;
72117;SDS011;59992;47.490;8.736;2023-12-20T02:48:11;9.00;;;5.20;;
72117;SDS011;59992;47.490;8.736;2023-12-20T02:50:59;7.30;;;4.40;;
72117;SDS011;59992;47.490;8.736;2023-12-20T02:53:47;8.30;;;5.10;;
72117;SDS011;59992;47.490;8.736;2023-12-20T02:56:36;11.40;;;5.10;;
72117;SDS011;59992;47.490;8.736;2023-12-20T02:59:24;8.90;;;4.80;;
72117;SDS011;59992;47.490;8.736;2023-12-20T03:02:13;9.20;;;4.60;;
72117;SDS011;59992;47.490;8.736;2023-12-20T03:05:01;9.50;;;4.90;;
72117;SDS011;59992;47.490;8.736;2023-12-20T03:07:50;8.60;;;4.70;;
72117;SDS011;59992;47.490;8.736;2023-12-20T03:10:38;10.80;;;5.10;;
72117;SDS011;59992;47.490;8.736;2023-12-20T03:13:26;9.20;;;5.40;;
72117;SDS011;59992;47.490;8.736;2023-12-20T03:16:14;11.60;;;6.00;;
72117;SDS011;59992;47.490;8.736;2023-12-20T03:19:03;11.50;;;5.90;;
72117;SDS011;59992;47.490;8.736;2023-12-20T03:21:51;9.50;;;5.40;;
72117;SDS011;59992;47.490;8.736;2023-12-20T03:24:40;9.80;;;5.20;;
72117;SDS011;59992;47.490;8.736;2023-12-20T03:27:28;8.60;;;5.30;;
72117;SDS011;59992;47.490;8.736;2023-12-20T03:30:16;8.60;;;4.90;;
72117;SDS011;59992;47.490;8.736;2023-12-20T03:33:05;12.30;;;6.20;;
72117;SDS011;59992;47.490;8.736;2023-12-20T03:35:54;10.50;;;5.90;;
72117;SDS011;59992;47.490;8.736;2023-12-20T03:38:42;9.00;;;5.10;;
72117;SDS011;59992;47.490;8.736;2023-12-20T03:41:30;11.50;;;6.40;;
72117;SDS011;59992;47.490;8.736;2023-12-20T03:44:18;11.60;;;6.60;;
72117;SDS011;59992;47.490;8.736;2023-12-20T03:47:07;10.80;;;6.10;;
72117;SDS011;59992;47.490;8.736;2023-12-20T03:49:55;7.90;;;4.90;;
72117;SDS011;59992;47.490;8.736;2023-12-20T03:52:43;9.10;;;4.80;;
72117;SDS011;59992;47.490;8.736;2023-12-20T03:55:31;13.20;;;6.40;;
72117;SDS011;59992;47.490;8.736;2023-12-20T03:58:19;12.20;;;6.40;;
72117;SDS011;59992;47.490;8.736;2023-12-20T04:01:09;10.70;;;6.20;;
72117;SDS011;59992;47.490;8.736;2023-12-20T04:03:58;11.60;;;6.60;;
72117;SDS011;59992;47.490;8.736;2023-12-20T04:06:46;7.80;;;5.10;;
72117;SDS011;59992;47.490;8.736;2023-12-20T04:09:34;11.10;;;6.50;;
72117;SDS011;59992;47.490;8.736;2023-12-20T04:12:22;9.60;;;5.80;;
72117;SDS011;59992;47.490;8.736;2023-12-20T04:15:10;11.50;;;6.70;;
72117;SDS011;59992;47.490;8.736;2023-12-20T04:17:59;10.80;;;6.50;;
72117;SDS011;59992;47.490;8.736;2023-12-20T04:20:47;12.30;;;7.10;;
72117;SDS011;59992;47.490;8.736;2023-12-20T04:23:36;12.20;;;6.60;;
72117;SDS011;59992;47.490;8.736;2023-12-20T04:26:24;16.80;;;8.10;;
72117;SDS011;59992;47.490;8.736;2023-12-20T04:29:13;12.20;;;7.00;;
72117;SDS011;59992;47.490;8.736;2023-12-20T04:32:01;11.00;;;6.90;;
72117;SDS011;59992;47.490;8.736;2023-12-20T04:34:49;13.10;;;6.80;;
72117;SDS011;59992;47.490;8.736;2023-12-20T04:37:37;11.90;;;6.50;;
72117;SDS011;59992;47.490;8.736;2023-12-20T04:40:25;9.80;;;6.00;;
72117;SDS011;59992;47.490;8.736;2023-12-20T04:43:13;11.60;;;6.50;;
72117;SDS011;59992;47.490;8.736;2023-12-20T04:46:02;11.70;;;6.90;;
72117;SDS011;59992;47.490;8.736;2023-12-20T04:48:50;11.30;;;6.20;;
72117;SDS011;59992;47.490;8.736;2023-12-20T04:51:38;11.40;;;6.40;;
72117;SDS011;59992;47.490;8.736;2023-12-20T04:54:26;10.70;;;5.80;;
72117;SDS011;59992;47.490;8.736;2023-12-20T04:57:14;8.70;;;5.50;;
72117;SDS011;59992;47.490;8.736;2023-12-20T05:00:03;10.70;;;6.30;;
72117;SDS011;59992;47.490;8.736;2023-12-20T05:02:55;12.80;;;7.20;;
72117;SDS011;59992;47.490;8.736;2023-12-20T05:05:43;11.20;;;6.80;;
72117;SDS011;59992;47.490;8.736;2023-12-20T05:08:31;11.30;;;6.30;;
72117;SDS011;59992;47.490;8.736;2023-12-20T05:11:19;8.70;;;5.70;;
72117;SDS011;59992;47.490;8.736;2023-12-20T05:14:07;10.30;;;6.10;;
72117;SDS011;59992;47.490;8.736;2023-12-20T05:16:56;10.90;;;6.30;;
72117;SDS011;59992;47.490;8.736;2023-12-20T05:19:44;8.90;;;4.80;;
72117;SDS011;59992;47.490;8.736;2023-12-20T05:22:32;9.90;;;5.60;;
72117;SDS011;59992;47.490;8.736;2023-12-20T05:25:20;9.00;;;5.30;;
72117;SDS011;59992;47.490;8.736;2023-12-20T05:28:09;8.70;;;5.40;;
72117;SDS011;59992;47.490;8.736;2023-12-20T05:30:57;10.80;;;5.60;;
72117;SDS011;59992;47.490;8.736;2023-12-20T05:33:45;9.30;;;5.90;;
72117;SDS011;59992;47.490;8.736;2023-12-20T05:36:33;10.40;;;6.10;;
72117;SDS011;59992;47.490;8.736;2023-12-20T05:39:22;11.20;;;6.70;;
72117;SDS011;59992;47.490;8.736;2023-12-20T05:42:10;12.40;;;6.70;;
72117;SDS011;59992;47.490;8.736;2023-12-20T05:44:58;9.20;;;5.20;;
72117;SDS011;59992;47.490;8.736;2023-12-20T05:47:47;8.20;;;4.90;;
72117;SDS011;59992;47.490;8.736;2023-12-20T05:50:35;9.90;;;5.90;;
72117;SDS011;59992;47.490;8.736;2023-12-20T05:53:23;11.00;;;6.10;;
72117;SDS011;59992;47.490;8.736;2023-12-20T05:56:11;10.30;;;6.20;;
72117;SDS011;59992;47.490;8.736;2023-12-20T05:58:59;12.30;;;6.90;;
72117;SDS011;59992;47.490;8.736;2023-12-20T06:01:47;11.10;;;6.60;;
72117;SDS011;59992;47.490;8.736;2023-12-20T06:04:35;12.50;;;7.00;;
72117;SDS011;59992;47.490;8.736;2023-12-20T06:07:23;8.90;;;5.20;;
72117;SDS011;59992;47.490;8.736;2023-12-20T06:10:11;10.00;;;6.20;;
72117;SDS011;59992;47.490;8.736;2023-12-20T06:13:00;8.10;;;4.90;;
72117;SDS011;59992;47.490;8.736;2023-12-20T06:15:48;9.20;;;6.00;;
72117;SDS011;59992;47.490;8.736;2023-12-20T06:18:37;9.50;;;5.30;;
72117;SDS011;59992;47.490;8.736;2023-12-20T06:21:25;9.50;;;5.80;;
72117;SDS011;59992;47.490;8.736;2023-12-20T06:24:13;10.40;;;6.20;;
72117;SDS011;59992;47.490;8.736;2023-12-20T06:27:02;11.20;;;6.70;;
72117;SDS011;59992;47.490;8.736;2023-12-20T06:29:50;11.50;;;6.40;;
72117;SDS011;59992;47.490;8.736;2023-12-20T06:32:38;11.90;;;6.80;;
72117;SDS011;59992;47.490;8.736;2023-12-20T06:35:26;10.70;;;6.20;;
72117;SDS011;59992;47.490;8.736;2023-12-20T06:38:15;11.50;;;6.50;;
72117;SDS011;59992;47.490;8.736;2023-12-20T06:41:06;11.70;;;6.50;;
72117;SDS011;59992;47.490;8.736;2023-12-20T06:43:54;10.20;;;5.80;;
72117;SDS011;59992;47.490;8.736;2023-12-20T06:46:42;12.70;;;7.20;;
72117;SDS011;59992;47.490;8.736;2023-12-20T06:49:31;10.00;;;5.50;;
72117;SDS011;59992;47.490;8.736;2023-12-20T06:52:19;12.60;;;6.90;;
72117;SDS011;59992;47.490;8.736;2023-12-20T06:55:08;10.10;;;6.00;;
72117;SDS011;59992;47.490;8.736;2023-12-20T06:57:56;9.80;;;5.50;;
72117;SDS011;59992;47.490;8.736;2023-12-20T07:00:44;10.10;;;5.70;;
72117;SDS011;59992;47.490;8.736;2023-12-20T07:03:32;11.60;;;6.20;;
72117;SDS011;59992;47.490;8.736;2023-12-20T07:06:21;11.50;;;6.20;;
72117;SDS011;59992;47.490;8.736;2023-12-20T07:09:09;11.40;;;6.30;;
72117;SDS011;59992;47.490;8.736;2023-12-20T07:11:57;10.00;;;5.70;;
72117;SDS011;59992;47.490;8.736;2023-12-20T07:14:46;9.20;;;5.90;;
72117;SDS011;59992;47.490;8.736;2023-12-20T07:17:34;7.80;;;4.90;;
72117;SDS011;59992;47.490;8.736;2023-12-20T07:20:22;11.10;;;6.70;;
72117;SDS011;59992;47.490;8.736;2023-12-20T07:23:10;10.90;;;6.50;;
72117;SDS011;59992;47.490;8.736;2023-12-20T07:25:58;10.50;;;6.00;;
72117;SDS011;59992;47.490;8.736;2023-12-20T07:28:47;9.40;;;5.50;;
72117;SDS011;59992;47.490;8.736;2023-12-20T07:31:35;11.90;;;7.10;;
72117;SDS011;59992;47.490;8.736;2023-12-20T07:34:23;9.60;;;6.10;;
72117;SDS011;59992;47.490;8.736;2023-12-20T07:37:12;10.70;;;6.50;;
72117;SDS011;59992;47.490;8.736;2023-12-20T07:40:00;8.60;;;5.20;;
72117;SDS011;59992;47.490;8.736;2023-12-20T07:42:50;10.30;;;6.10;;
72117;SDS011;59992;47.490;8.736;2023-12-20T07:45:38;10.80;;;6.10;;
72117;SDS011;59992;47.490;8.736;2023-12-20T07:48:27;10.10;;;6.40;;
72117;SDS011;59992;47.490;8.736;2023-12-20T07:51:15;9.30;;;5.90;;
72117;SDS011;59992;47.490;8.736;2023-12-20T07:54:04;8.50;;;5.00;;
72117;SDS011;59992;47.490;8.736;2023-12-20T07:56:55;10.10;;;6.30;;
72117;SDS011;59992;47.490;8.736;2023-12-20T07:59:44;11.20;;;5.90;;
72117;SDS011;59992;47.490;8.736;2023-12-20T08:02:32;10.30;;;6.20;;
72117;SDS011;59992;47.490;8.736;2023-12-20T08:05:21;9.50;;;5.90;;
72117;SDS011;59992;47.490;8.736;2023-12-20T08:08:09;9.90;;;6.20;;
72117;SDS011;59992;47.490;8.736;2023-12-20T08:10:57;9.40;;;5.70;;
72117;SDS011;59992;47.490;8.736;2023-12-20T08:13:46;7.90;;;5.10;;
72117;SDS011;59992;47.490;8.736;2023-12-20T08:16:35;9.50;;;5.30;;
72117;SDS011;59992;47.490;8.736;2023-12-20T08:19:23;8.60;;;5.40;;
72117;SDS011;59992;47.490;8.736;2023-12-20T08:22:11;9.50;;;5.00;;
72117;SDS011;59992;47.490;8.736;2023-12-20T08:25:00;7.40;;;4.50;;
72117;SDS011;59992;47.490;8.736;2023-12-20T08:27:49;9.30;;;5.10;;
72117;SDS011;59992;47.490;8.736;2023-12-20T08:30:37;8.30;;;5.00;;
72117;SDS011;59992;47.490;8.736;2023-12-20T08:33:25;7.20;;;4.40;;
72117;SDS011;59992;47.490;8.736;2023-12-20T08:36:14;6.70;;;4.20;;
72117;SDS011;59992;47.490;8.736;2023-12-20T08:39:04;8.40;;;4.90;;
72117;SDS011;59992;47.490;8.736;2023-12-20T08:41:54;7.70;;;4.20;;
72117;SDS011;59992;47.490;8.736;2023-12-20T08:44:42;6.70;;;4.00;;
72117;SDS011;59992;47.490;8.736;2023-12-20T08:47:31;7.50;;;4.60;;
72117;SDS011;59992;47.490;8.736;2023-12-20T08:50:19;7.90;;;4.60;;
72117;SDS011;59992;47.490;8.736;2023-12-20T08:53:08;8.30;;;4.60;;
72117;SDS011;59992;47.490;8.736;2023-12-20T08:55:56;9.20;;;5.30;;
72117;SDS011;59992;47.490;8.736;2023-12-20T08:58:47;7.20;;;4.60;;
72117;SDS011;59992;47.490;8.736;2023-12-20T09:01:35;9.20;;;5.50;;
72117;SDS011;59992;47.490;8.736;2023-12-20T09:04:24;8.30;;;4.30;;
72117;SDS011;59992;47.490;8.736;2023-12-20T09:07:21;7.70;;;4.70;;
72117;SDS011;59992;47.490;8.736;2023-12-20T09:10:10;8.10;;;4.80;;
72117;SDS011;59992;47.490;8.736;2023-12-20T09:12:58;7.00;;;4.10;;
72117;SDS011;59992;47.490;8.736;2023-12-20T09:15:46;6.90;;;4.50;;
72117;SDS011;59992;47.490;8.736;2023-12-20T09:18:35;8.00;;;5.00;;
72117;SDS011;59992;47.490;8.736;2023-12-20T09:21:24;7.60;;;5.00;;
72117;SDS011;59992;47.490;8.736;2023-12-20T09:24:12;7.90;;;5.20;;
72117;SDS011;59992;47.490;8.736;2023-12-20T09:27:00;7.10;;;3.90;;
72117;SDS011;59992;47.490;8.736;2023-12-20T09:29:49;7.00;;;4.40;;
72117;SDS011;59992;47.490;8.736;2023-12-20T09:32:37;8.30;;;4.70;;
72117;SDS011;59992;47.490;8.736;2023-12-20T09:35:25;6.10;;;3.80;;
72117;SDS011;59992;47.490;8.736;2023-12-20T09:38:14;7.90;;;4.20;;
72117;SDS011;59992;47.490;8.736;2023-12-20T09:41:04;6.90;;;4.00;;
72117;SDS011;59992;47.490;8.736;2023-12-20T09:43:52;7.70;;;4.50;;
72117;SDS011;59992;47.490;8.736;2023-12-20T09:46:45;6.60;;;4.30;;
72117;SDS011;59992;47.490;8.736;2023-12-20T09:49:37;6.20;;;3.90;;
72117;SDS011;59992;47.490;8.736;2023-12-20T09:52:26;6.00;;;3.90;;
72117;SDS011;59992;47.490;8.736;2023-12-20T09:55:15;7.10;;;4.50;;
72117;SDS011;59992;47.490;8.736;2023-12-20T09:58:05;6.80;;;4.20;;
72117;SDS011;59992;47.490;8.736;2023-12-20T10:00:55;8.50;;;4.90;;
72117;SDS011;59992;47.490;8.736;2023-12-20T10:03:44;8.20;;;5.00;;
72117;SDS011;59992;47.490;8.736;2023-12-20T10:06:33;7.50;;;5.00;;
72117;SDS011;59992;47.490;8.736;2023-12-20T10:09:21;7.40;;;4.40;;
72117;SDS011;59992;47.490;8.736;2023-12-20T10:12:10;5.90;;;3.60;;
72117;SDS011;59992;47.490;8.736;2023-12-20T10:14:58;9.30;;;5.00;;
72117;SDS011;59992;47.490;8.736;2023-12-20T10:17:48;7.40;;;4.60;;
72117;SDS011;59992;47.490;8.736;2023-12-20T10:20:37;7.50;;;4.50;;
72117;SDS011;59992;47.490;8.736;2023-12-20T10:23:27;7.50;;;4.40;;
72117;SDS011;59992;47.490;8.736;2023-12-20T10:26:20;7.60;;;4.50;;
72117;SDS011;59992;47.490;8.736;2023-12-20T10:29:09;5.80;;;3.80;;
72117;SDS011;59992;47.490;8.736;2023-12-20T10:31:57;5.60;;;3.20;;
72117;SDS011;59992;47.490;8.736;2023-12-20T10:34:46;5.80;;;3.60;;
72117;SDS011;59992;47.490;8.736;2023-12-20T10:37:35;6.90;;;4.10;;
72117;SDS011;59992;47.490;8.736;2023-12-20T10:40:24;6.20;;;3.50;;
72117;SDS011;59992;47.490;8.736;2023-12-20T10:43:16;7.40;;;4.30;;
72117;SDS011;59992;47.490;8.736;2023-12-20T10:46:05;6.50;;;3.80;;
72117;SDS011;59992;47.490;8.736;2023-12-20T10:48:55;5.80;;;3.20;;
72117;SDS011;59992;47.490;8.736;2023-12-20T10:51:45;6.10;;;3.60;;
72117;SDS011;59992;47.490;8.736;2023-12-20T10:54:34;7.60;;;4.00;;
72117;SDS011;59992;47.490;8.736;2023-12-20T10:57:23;5.70;;;3.70;;
72117;SDS011;59992;47.490;8.736;2023-12-20T11:00:16;5.90;;;3.40;;
72117;SDS011;59992;47.490;8.736;2023-12-20T11:03:06;6.40;;;3.40;;
72117;SDS011;59992;47.490;8.736;2023-12-20T11:05:58;5.80;;;3.90;;
72117;SDS011;59992;47.490;8.736;2023-12-20T11:08:53;4.80;;;3.40;;
72117;SDS011;59992;47.490;8.736;2023-12-20T11:11:59;6.00;;;3.50;;
72117;SDS011;59992;47.490;8.736;2023-12-20T11:14:56;6.00;;;3.90;;
72117;SDS011;59992;47.490;8.736;2023-12-20T11:17:54;6.10;;;3.60;;
72117;SDS011;59992;47.490;8.736;2023-12-20T11:20:43;6.00;;;3.50;;
72117;SDS011;59992;47.490;8.736;2023-12-20T11:23:31;4.50;;;2.90;;
72117;SDS011;59992;47.490;8.736;2023-12-20T11:26:23;4.60;;;2.90;;
72117;SDS011;59992;47.490;8.736;2023-12-20T11:29:29;3.50;;;2.00;;
72117;SDS011;59992;47.490;8.736;2023-12-20T11:32:28;3.80;;;2.10;;
72117;SDS011;59992;47.490;8.736;2023-12-20T11:35:18;2.70;;;1.90;;
72117;SDS011;59992;47.490;8.736;2023-12-20T11:38:07;3.30;;;1.80;;
72117;SDS011;59992;47.490;8.736;2023-12-20T11:40:56;3.00;;;1.80;;
72117;SDS011;59992;47.490;8.736;2023-12-20T11:43:51;3.10;;;1.90;;
72117;SDS011;59992;47.490;8.736;2023-12-20T11:46:41;2.00;;;1.40;;
72117;SDS011;59992;47.490;8.736;2023-12-20T11:49:29;2.50;;;1.60;;
72117;SDS011;59992;47.490;8.736;2023-12-20T11:52:17;2.70;;;1.60;;
72117;SDS011;59992;47.490;8.736;2023-12-20T11:55:06;1.90;;;1.30;;
72117;SDS011;59992;47.490;8.736;2023-12-20T11:57:54;3.20;;;1.60;;
72117;SDS011;59992;47.490;8.736;2023-12-20T12:00:43;1.80;;;1.30;;
72117;SDS011;59992;47.490;8.736;2023-12-20T12:03:31;2.30;;;1.30;;
72117;SDS011;59992;47.490;8.736;2023-12-20T12:06:19;2.70;;;1.40;;
72117;SDS011;59992;47.490;8.736;2023-12-20T12:09:08;2.60;;;1.30;;
72117;SDS011;59992;47.490;8.736;2023-12-20T12:11:56;1.80;;;1.10;;
72117;SDS011;59992;47.490;8.736;2023-12-20T12:14:44;1.20;;;0.90;;
72117;SDS011;59992;47.490;8.736;2023-12-20T12:17:32;2.20;;;1.10;;
72117;SDS011;59992;47.490;8.736;2023-12-20T12:20:21;2.00;;;1.20;;
72117;SDS011;59992;47.490;8.736;2023-12-20T12:23:11;2.30;;;1.40;;
72117;SDS011;59992;47.490;8.736;2023-12-20T12:25:59;2.20;;;1.40;;
72117;SDS011;59992;47.490;8.736;2023-12-20T12:28:50;2.70;;;1.40;;
72117;SDS011;59992;47.490;8.736;2023-12-20T12:31:39;1.80;;;1.20;;
72117;SDS011;59992;47.490;8.736;2023-12-20T12:34:28;1.30;;;0.90;;
72117;SDS011;59992;47.490;8.736;2023-12-20T12:37:16;2.40;;;1.00;;
72117;SDS011;59992;47.490;8.736;2023-12-20T12:40:05;2.70;;;1.30;;
72117;SDS011;59992;47.490;8.736;2023-12-20T12:42:56;1.60;;;0.90;;
72117;SDS011;59992;47.490;8.736;2023-12-20T12:45:45;1.80;;;1.00;;
72117;SDS011;59992;47.490;8.736;2023-12-20T12:48:34;1.40;;;0.90;;
72117;SDS011;59992;47.490;8.736;2023-12-20T12:51:23;1.40;;;0.90;;
72117;SDS011;59992;47.490;8.736;2023-12-20T12:54:11;2.20;;;1.20;;
72117;SDS011;59992;47.490;8.736;2023-12-20T12:57:02;1.50;;;1.20;;
72117;SDS011;59992;47.490;8.736;2023-12-20T12:59:51;2.00;;;1.10;;
72117;SDS011;59992;47.490;8.736;2023-12-20T13:02:39;2.30;;;1.10;;
72117;SDS011;59992;47.490;8.736;2023-12-20T13:05:28;1.40;;;1.00;;
72117;SDS011;59992;47.490;8.736;2023-12-20T13:08:18;1.70;;;1.10;;
72117;SDS011;59992;47.490;8.736;2023-12-20T13:11:06;2.50;;;1.30;;
72117;SDS011;59992;47.490;8.736;2023-12-20T13:13:55;1.40;;;1.00;;
72117;SDS011;59992;47.490;8.736;2023-12-20T13:16:44;2.90;;;0.90;;
72117;SDS011;59992;47.490;8.736;2023-12-20T13:19:32;2.30;;;1.10;;
72117;SDS011;59992;47.490;8.736;2023-12-20T13:22:20;2.30;;;1.00;;
72117;SDS011;59992;47.490;8.736;2023-12-20T13:25:09;1.50;;;0.90;;
72117;SDS011;59992;47.490;8.736;2023-12-20T13:27:57;2.90;;;1.10;;
72117;SDS011;59992;47.490;8.736;2023-12-20T13:30:46;2.80;;;1.20;;
72117;SDS011;59992;47.490;8.736;2023-12-20T13:33:34;2.80;;;1.30;;
72117;SDS011;59992;47.490;8.736;2023-12-20T13:36:22;2.30;;;1.10;;
72117;SDS011;59992;47.490;8.736;2023-12-20T13:39:11;2.30;;;1.30;;
72117;SDS011;59992;47.490;8.736;2023-12-20T13:42:00;1.60;;;1.00;;
72117;SDS011;59992;47.490;8.736;2023-12-20T13:44:48;1.40;;;1.00;;
72117;SDS011;59992;47.490;8.736;2023-12-20T13:47:36;1.30;;;0.90;;
72117;SDS011;59992;47.490;8.736;2023-12-20T13:50:25;2.30;;;1.00;;
72117;SDS011;59992;47.490;8.736;2023-12-20T13:53:14;1.60;;;1.10;;
72117;SDS011;59992;47.490;8.736;2023-12-20T13:56:02;2.60;;;1.10;;
72117;SDS011;59992;47.490;8.736;2023-12-20T13:58:51;1.90;;;1.00;;
72117;SDS011;59992;47.490;8.736;2023-12-20T14:01:40;1.90;;;1.10;;
72117;SDS011;59992;47.490;8.736;2023-12-20T14:04:28;2.80;;;1.20;;
72117;SDS011;59992;47.490;8.736;2023-12-20T14:07:16;2.20;;;1.30;;
72117;SDS011;59992;47.490;8.736;2023-12-20T14:10:05;3.00;;;1.20;;
72117;SDS011;59992;47.490;8.736;2023-12-20T14:12:54;2.60;;;1.40;;
72117;SDS011;59992;47.490;8.736;2023-12-20T14:15:43;2.80;;;1.20;;
72117;SDS011;59992;47.490;8.736;2023-12-20T14:18:31;3.20;;;1.10;;
72117;SDS011;59992;47.490;8.736;2023-12-20T14:21:20;1.80;;;1.10;;
72117;SDS011;59992;47.490;8.736;2023-12-20T14:24:10;1.90;;;1.00;;
72117;SDS011;59992;47.490;8.736;2023-12-20T14:27:01;3.60;;;1.10;;
72117;SDS011;59992;47.490;8.736;2023-12-20T14:29:50;3.70;;;1.70;;
72117;SDS011;59992;47.490;8.736;2023-12-20T14:32:38;2.50;;;1.50;;
72117;SDS011;59992;47.490;8.736;2023-12-20T14:35:26;2.40;;;1.30;;
72117;SDS011;59992;47.490;8.736;2023-12-20T14:38:15;3.40;;;1.40;;
72117;SDS011;59992;47.490;8.736;2023-12-20T14:41:03;2.60;;;1.40;;
72117;SDS011;59992;47.490;8.736;2023-12-20T14:43:55;4.40;;;1.60;;
72117;SDS011;59992;47.490;8.736;2023-12-20T14:46:44;3.20;;;1.40;;
72117;SDS011;59992;47.490;8.736;2023-12-20T14:49:32;3.60;;;1.40;;
72117;SDS011;59992;47.490;8.736;2023-12-20T14:52:21;3.00;;;1.20;;
72117;SDS011;59992;47.490;8.736;2023-12-20T14:55:09;4.00;;;1.40;;
72117;SDS011;59992;47.490;8.736;2023-12-20T14:57:57;3.50;;;1.10;;
72117;SDS011;59992;47.490;8.736;2023-12-20T15:00:46;3.40;;;1.40;;
72117;SDS011;59992;47.490;8.736;2023-12-20T15:03:34;2.50;;;1.00;;
72117;SDS011;59992;47.490;8.736;2023-12-20T15:06:23;2.30;;;1.10;;
72117;SDS011;59992;47.490;8.736;2023-12-20T15:09:12;4.40;;;1.40;;
72117;SDS011;59992;47.490;8.736;2023-12-20T15:12:00;4.80;;;1.80;;
72117;SDS011;59992;47.490;8.736;2023-12-20T15:14:50;3.40;;;1.00;;
72117;SDS011;59992;47.490;8.736;2023-12-20T15:17:38;2.40;;;1.00;;
72117;SDS011;59992;47.490;8.736;2023-12-20T15:20:27;2.70;;;0.90;;
72117;SDS011;59992;47.490;8.736;2023-12-20T15:23:15;3.10;;;1.10;;
72117;SDS011;59992;47.490;8.736;2023-12-20T15:26:03;3.50;;;1.40;;
72117;SDS011;59992;47.490;8.736;2023-12-20T15:28:51;5.30;;;1.00;;
72117;SDS011;59992;47.490;8.736;2023-12-20T15:31:42;3.90;;;1.00;;
72117;SDS011;59992;47.490;8.736;2023-12-20T15:34:31;4.30;;;1.10;;
72117;SDS011;59992;47.490;8.736;2023-12-20T15:37:19;3.10;;;0.80;;
72117;SDS011;59992;47.490;8.736;2023-12-20T15:40:09;2.40;;;1.00;;
72117;SDS011;59992;47.490;8.736;2023-12-20T15:42:59;3.20;;;0.90;;
72117;SDS011;59992;47.490;8.736;2023-12-20T15:45:47;5.20;;;0.90;;
72117;SDS011;59992;47.490;8.736;2023-12-20T15:48:35;3.20;;;1.00;;
72117;SDS011;59992;47.490;8.736;2023-12-20T15:51:23;3.70;;;1.00;;
72117;SDS011;59992;47.490;8.736;2023-12-20T15:54:11;3.80;;;1.00;;
72117;SDS011;59992;47.490;8.736;2023-12-20T15:57:00;2.90;;;1.40;;
72117;SDS011;59992;47.490;8.736;2023-12-20T15:59:48;6.70;;;1.50;;
72117;SDS011;59992;47.490;8.736;2023-12-20T16:02:37;4.70;;;1.50;;
72117;SDS011;59992;47.490;8.736;2023-12-20T16:05:25;8.20;;;1.10;;
72117;SDS011;59992;47.490;8.736;2023-12-20T16:08:13;5.10;;;1.10;;
72117;SDS011;59992;47.490;8.736;2023-12-20T16:11:02;4.30;;;0.90;;
72117;SDS011;59992;47.490;8.736;2023-12-20T16:13:50;2.80;;;0.90;;
72117;SDS011;59992;47.490;8.736;2023-12-20T16:16:38;4.90;;;0.90;;
72117;SDS011;59992;47.490;8.736;2023-12-20T16:19:27;4.00;;;0.90;;
72117;SDS011;59992;47.490;8.736;2023-12-20T16:22:15;2.80;;;0.90;;
72117;SDS011;59992;47.490;8.736;2023-12-20T16:25:04;3.20;;;0.90;;
72117;SDS011;59992;47.490;8.736;2023-12-20T16:27:53;3.60;;;0.90;;
72117;SDS011;59992;47.490;8.736;2023-12-20T16:30:41;4.30;;;0.70;;
72117;SDS011;59992;47.490;8.736;2023-12-20T16:33:29;4.00;;;0.70;;
72117;SDS011;59992;47.490;8.736;2023-12-20T16:36:17;3.00;;;0.90;;
72117;SDS011;59992;47.490;8.736;2023-12-20T16:39:05;2.30;;;0.70;;
72117;SDS011;59992;47.490;8.736;2023-12-20T16:41:54;2.80;;;0.50;;
72117;SDS011;59992;47.490;8.736;2023-12-20T16:44:42;2.90;;;0.60;;
72117;SDS011;59992;47.490;8.736;2023-12-20T16:47:30;2.30;;;0.80;;
72117;SDS011;59992;47.490;8.736;2023-12-20T16:50:19;4.00;;;0.60;;
72117;SDS011;59992;47.490;8.736;2023-12-20T16:53:07;5.80;;;3.30;;
72117;SDS011;59992;47.490;8.736;2023-12-20T16:55:56;8.20;;;3.70;;